sensor_id;sensor_type;location;lat;lon;timestamp;temperature;humidity
16178;DHT22;8195;51.220;9.746;2023-03-05T00:03:07;2.20;97.20
16178;DHT22;8195;51.220;9.746;2023-03-05T00:13:08;2.10;97.20
16178;DHT22;8195;51.220;9.746;2023-03-05T00:23:08;2.10;97.20
16178;DHT22;8195;51.220;9.746;2023-03-05T00:33:10;2.10;97.20
16178;DHT22;8195;51.220;9.746;2023-03-05T00:43:11;2.10;97.20
16178;DHT22;8195;51.220;9.746;2023-03-05T00:53:11;2.10;97.20
16178;DHT22;8195;51.220;9.746;2023-03-05T01:03:12;2.10;97.20
16178;DHT22;8195;51.220;9.746;2023-03-05T01:13:14;2.10;97.20
16178;DHT22;8195;51.220;9.746;2023-03-05T01:23:15;2.10;97.20
16178;DHT22;8195;51.220;9.746;2023-03-05T01:33:16;2.00;97.20
16178;DHT22;8195;51.220;9.746;2023-03-05T01:43:28;2.00;97.20
16178;DHT22;8195;51.220;9.746;2023-03-05T01:53:29;2.00;97.20
16178;DHT22;8195;51.220;9.746;2023-03-05T02:03:31;1.90;97.20
16178;DHT22;8195;51.220;9.746;2023-03-05T02:13:34;2.00;97.20
16178;DHT22;8195;51.220;9.746;2023-03-05T02:23:37;1.90;97.20
16178;DHT22;8195;51.220;9.746;2023-03-05T02:33:37;1.90;97.20
16178;DHT22;8195;51.220;9.746;2023-03-05T02:43:38;1.90;97.20
16178;DHT22;8195;51.220;9.746;2023-03-05T02:53:39;1.90;97.20
16178;DHT22;8195;51.220;9.746;2023-03-05T03:03:39;1.90;97.20
16178;DHT22;8195;51.220;9.746;2023-03-05T03:13:59;1.90;97.20
16178;DHT22;8195;51.220;9.746;2023-03-05T03:23:59;2.00;97.20
16178;DHT22;8195;51.220;9.746;2023-03-05T03:34:00;1.90;97.20
16178;DHT22;8195;51.220;9.746;2023-03-05T03:44:01;1.90;97.20
16178;DHT22;8195;51.220;9.746;2023-03-05T03:54:01;1.90;97.20
16178;DHT22;8195;51.220;9.746;2023-03-05T04:04:02;1.90;97.20
16178;DHT22;8195;51.220;9.746;2023-03-05T04:14:03;1.80;97.20
16178;DHT22;8195;51.220;9.746;2023-03-05T04:24:04;1.80;97.20
16178;DHT22;8195;51.220;9.746;2023-03-05T04:34:05;1.80;97.20
16178;DHT22;8195;51.220;9.746;2023-03-05T04:44:06;1.80;97.20
16178;DHT22;8195;51.220;9.746;2023-03-05T04:54:06;1.80;97.20
16178;DHT22;8195;51.220;9.746;2023-03-05T05:04:07;1.80;97.20
16178;DHT22;8195;51.220;9.746;2023-03-05T05:14:08;1.80;97.20
16178;DHT22;8195;51.220;9.746;2023-03-05T05:24:09;1.70;97.20
16178;DHT22;8195;51.220;9.746;2023-03-05T05:34:09;1.80;97.20
16178;DHT22;8195;51.220;9.746;2023-03-05T05:44:10;1.80;97.20
16178;DHT22;8195;51.220;9.746;2023-03-05T05:54:14;1.80;97.20
16178;DHT22;8195;51.220;9.746;2023-03-05T06:04:15;1.80;97.20
16178;DHT22;8195;51.220;9.746;2023-03-05T06:14:15;1.80;97.20
16178;DHT22;8195;51.220;9.746;2023-03-05T06:24:16;1.80;97.20
16178;DHT22;8195;51.220;9.746;2023-03-05T06:34:17;1.80;97.20
16178;DHT22;8195;51.220;9.746;2023-03-05T06:44:17;1.90;97.20
16178;DHT22;8195;51.220;9.746;2023-03-05T06:54:18;1.80;97.20
16178;DHT22;8195;51.220;9.746;2023-03-05T07:04:18;1.90;97.20
16178;DHT22;8195;51.220;9.746;2023-03-05T07:14:19;1.90;97.20
16178;DHT22;8195;51.220;9.746;2023-03-05T07:24:19;2.00;97.20
16178;DHT22;8195;51.220;9.746;2023-03-05T07:34:20;2.10;97.20
16178;DHT22;8195;51.220;9.746;2023-03-05T07:44:21;2.10;97.20
16178;DHT22;8195;51.220;9.746;2023-03-05T07:54:22;2.20;97.20
16178;DHT22;8195;51.220;9.746;2023-03-05T08:04:22;2.40;97.20
16178;DHT22;8195;51.220;9.746;2023-03-05T08:14:23;2.50;97.20
16178;DHT22;8195;51.220;9.746;2023-03-05T08:24:23;2.50;97.20
16178;DHT22;8195;51.220;9.746;2023-03-05T08:34:24;2.60;97.20
16178;DHT22;8195;51.220;9.746;2023-03-05T08:44:24;2.50;97.20
16178;DHT22;8195;51.220;9.746;2023-03-05T08:54:25;2.50;97.20
16178;DHT22;8195;51.220;9.746;2023-03-05T09:04:26;2.60;97.20
16178;DHT22;8195;51.220;9.746;2023-03-05T09:14:27;2.60;97.20
16178;DHT22;8195;51.220;9.746;2023-03-05T09:24:28;2.60;97.20
16178;DHT22;8195;51.220;9.746;2023-03-05T09:34:29;2.80;97.20
16178;DHT22;8195;51.220;9.746;2023-03-05T09:44:43;3.10;97.20
16178;DHT22;8195;51.220;9.746;2023-03-05T09:54:51;3.30;97.20
16178;DHT22;8195;51.220;9.746;2023-03-05T10:05:17;3.50;97.20
16178;DHT22;8195;51.220;9.746;2023-03-05T10:15:36;3.70;97.20
16178;DHT22;8195;51.220;9.746;2023-03-05T10:26:01;3.70;97.20
16178;DHT22;8195;51.220;9.746;2023-03-05T10:46:16;3.50;97.20
16178;DHT22;8195;51.220;9.746;2023-03-05T10:56:21;3.50;97.20
16178;DHT22;8195;51.220;9.746;2023-03-05T11:16:46;3.50;97.20
16178;DHT22;8195;51.220;9.746;2023-03-05T11:26:50;3.90;97.20
16178;DHT22;8195;51.220;9.746;2023-03-05T11:56:59;3.90;97.20
16178;DHT22;8195;51.220;9.746;2023-03-05T12:07:02;4.00;97.20
16178;DHT22;8195;51.220;9.746;2023-03-05T12:17:12;4.40;97.20
16178;DHT22;8195;51.220;9.746;2023-03-05T12:27:16;4.40;97.20
16178;DHT22;8195;51.220;9.746;2023-03-05T12:47:30;4.40;97.20
16178;DHT22;8195;51.220;9.746;2023-03-05T12:57:32;4.50;97.20
16178;DHT22;8195;51.220;9.746;2023-03-05T13:07:32;4.50;97.20
16178;DHT22;8195;51.220;9.746;2023-03-05T13:27:52;4.80;97.20
16178;DHT22;8195;51.220;9.746;2023-03-05T13:38:01;4.40;97.20
16178;DHT22;8195;51.220;9.746;2023-03-05T13:48:04;4.30;97.20
16178;DHT22;8195;51.220;9.746;2023-03-05T13:58:05;4.10;97.20
16178;DHT22;8195;51.220;9.746;2023-03-05T14:08:05;3.90;97.20
16178;DHT22;8195;51.220;9.746;2023-03-05T14:38:25;3.90;97.20
16178;DHT22;8195;51.220;9.746;2023-03-05T14:48:26;3.90;97.20
16178;DHT22;8195;51.220;9.746;2023-03-05T14:58:29;3.90;97.20
16178;DHT22;8195;51.220;9.746;2023-03-05T15:08:31;4.00;97.20
16178;DHT22;8195;51.220;9.746;2023-03-05T15:18:32;4.00;97.20
16178;DHT22;8195;51.220;9.746;2023-03-05T15:28:33;4.00;97.20
16178;DHT22;8195;51.220;9.746;2023-03-05T15:38:34;4.00;97.20
16178;DHT22;8195;51.220;9.746;2023-03-05T15:48:35;4.00;97.20
16178;DHT22;8195;51.220;9.746;2023-03-05T15:58:35;3.90;97.20
16178;DHT22;8195;51.220;9.746;2023-03-05T16:08:38;3.80;97.20
16178;DHT22;8195;51.220;9.746;2023-03-05T16:18:42;3.70;97.20
16178;DHT22;8195;51.220;9.746;2023-03-05T16:28:44;3.60;97.20
16178;DHT22;8195;51.220;9.746;2023-03-05T16:38:45;3.50;97.20
16178;DHT22;8195;51.220;9.746;2023-03-05T16:48:45;3.30;97.20
16178;DHT22;8195;51.220;9.746;2023-03-05T16:58:46;3.30;97.20
16178;DHT22;8195;51.220;9.746;2023-03-05T17:08:48;3.00;97.20
16178;DHT22;8195;51.220;9.746;2023-03-05T17:18:48;2.90;97.20
16178;DHT22;8195;51.220;9.746;2023-03-05T17:28:49;2.90;97.20
16178;DHT22;8195;51.220;9.746;2023-03-05T17:38:50;2.80;97.20
16178;DHT22;8195;51.220;9.746;2023-03-05T17:48:51;2.70;97.20
16178;DHT22;8195;51.220;9.746;2023-03-05T17:58:52;2.70;97.20
16178;DHT22;8195;51.220;9.746;2023-03-05T18:08:52;2.70;97.20
16178;DHT22;8195;51.220;9.746;2023-03-05T18:18:53;2.60;97.20
16178;DHT22;8195;51.220;9.746;2023-03-05T18:28:53;2.50;97.20
16178;DHT22;8195;51.220;9.746;2023-03-05T18:38:54;2.50;97.20
16178;DHT22;8195;51.220;9.746;2023-03-05T18:48:54;2.50;97.20
16178;DHT22;8195;51.220;9.746;2023-03-05T18:58:55;2.50;97.20
16178;DHT22;8195;51.220;9.746;2023-03-05T19:09:12;2.50;97.20
16178;DHT22;8195;51.220;9.746;2023-03-05T19:19:21;2.50;97.20
16178;DHT22;8195;51.220;9.746;2023-03-05T19:29:23;2.50;97.20
16178;DHT22;8195;51.220;9.746;2023-03-05T19:39:24;2.50;97.20
16178;DHT22;8195;51.220;9.746;2023-03-05T19:49:25;2.50;97.20
16178;DHT22;8195;51.220;9.746;2023-03-05T19:59:29;2.40;97.20
16178;DHT22;8195;51.220;9.746;2023-03-05T20:09:30;3.20;97.20
16178;DHT22;8195;51.220;9.746;2023-03-05T20:19:31;2.40;97.20
16178;DHT22;8195;51.220;9.746;2023-03-05T20:29:31;2.30;97.20
16178;DHT22;8195;51.220;9.746;2023-03-05T20:39:32;2.20;97.20
16178;DHT22;8195;51.220;9.746;2023-03-05T20:49:32;2.10;97.20
16178;DHT22;8195;51.220;9.746;2023-03-05T20:59:33;2.10;97.20
16178;DHT22;8195;51.220;9.746;2023-03-05T21:09:34;2.10;97.20
16178;DHT22;8195;51.220;9.746;2023-03-05T21:19:36;2.10;97.20
16178;DHT22;8195;51.220;9.746;2023-03-05T21:29:37;2.10;97.20
16178;DHT22;8195;51.220;9.746;2023-03-05T21:39:38;2.10;97.20
16178;DHT22;8195;51.220;9.746;2023-03-05T21:49:38;1.90;97.20
16178;DHT22;8195;51.220;9.746;2023-03-05T21:59:40;1.90;97.20
16178;DHT22;8195;51.220;9.746;2023-03-05T22:09:41;1.90;97.20
16178;DHT22;8195;51.220;9.746;2023-03-05T22:19:41;1.80;97.20
16178;DHT22;8195;51.220;9.746;2023-03-05T22:29:42;1.90;97.20
16178;DHT22;8195;51.220;9.746;2023-03-05T22:39:42;1.90;97.20
16178;DHT22;8195;51.220;9.746;2023-03-05T22:49:43;1.80;97.20
16178;DHT22;8195;51.220;9.746;2023-03-05T22:59:43;1.80;97.20
16178;DHT22;8195;51.220;9.746;2023-03-05T23:09:53;1.90;97.20
16178;DHT22;8195;51.220;9.746;2023-03-05T23:19:54;1.80;97.20
16178;DHT22;8195;51.220;9.746;2023-03-05T23:30:13;1.70;97.20
16178;DHT22;8195;51.220;9.746;2023-03-05T23:40:18;1.70;97.20
16178;DHT22;8195;51.220;9.746;2023-03-05T23:50:24;1.60;97.20
